Joice, Iowa
Current Conditions -  °F | °C
As of 10:15 PM on Wednesday 22 Oct 2014 (Local Time) from KFXY Reporting Station
Overcast Overcast  
Wind Chill: 54°   Ceiling: 4800
Heat Index: 54°   Visibility: 10mi
Dew Point: 43°   Wind: 7mph
Humidity: 67%   Direction: 200°SSW
Pressure: 30.13"   Gusts: NA
Location:  43.36°N, 93.45°W
Report Text: KFXY 230315Z AUTO 20006KT 10SM BKN048 BKN060 OVC070 12/06 A3013 RMK AO2
Loading
Personal Weather Stations






























Interactive Weather Map
Tropical Storm Tracking
New forecast layout! Learn more

10-Day Weather Forecast

Advertisements
Track Severe Weather on mobile